Time;durP1;ratioP1;P1;durP2;ratioP2;P2;SDS_P1;SDS_P2;PMS_P1;PMS_P2;Temp;Humidity;BMP_temperature;BMP_pressure;BME280_temperature;BME280_humidity;BME280_pressure;Samples;Min_cycle;Max_cycle;Signal;HPM_P1;HPM_P2
2021/10/25 00:01:15;;;;;;;9.70;3.40;;;;;;;;;;5024112;28;20519;-65
2021/10/25 00:03:43;;;;;;;6.75;3.53;;;;;;;;;;5023767;28;20547;-65
2021/10/25 00:06:12;;;;;;;6.82;3.35;;;;;;;;;;5023806;28;20072;-64
2021/10/25 00:08:40;;;;;;;5.28;3.22;;;;;;;;;;5023742;28;20140;-65
2021/10/25 00:11:08;;;;;;;9.02;3.30;;;;;;;;;;5023897;28;20560;-65
2021/10/25 00:13:37;;;;;;;4.22;2.65;;;;;;;;;;5023580;28;20045;-64
2021/10/25 00:16:07;;;;;;;6.32;3.15;;;;;;;;;;5023173;28;20154;-67
2021/10/25 00:18:35;;;;;;;5.45;3.15;;;;;;;;;;5023617;28;20045;-65
2021/10/25 00:21:03;;;;;;;6.85;3.13;;;;;;;;;;5022332;28;20054;-65
2021/10/25 00:23:32;;;;;;;7.85;3.08;;;;;;;;;;5022907;28;20049;-69
2021/10/25 00:26:01;;;;;;;6.63;3.03;;;;;;;;;;5023113;28;20049;-67
2021/10/25 00:28:29;;;;;;;11.20;3.13;;;;;;;;;;5023546;28;20124;-65
2021/10/25 00:30:57;;;;;;;4.20;2.83;;;;;;;;;;5023440;28;20486;-65
2021/10/25 00:33:27;;;;;;;7.93;3.83;;;;;;;;;;5021787;28;20065;-64
2021/10/25 00:35:57;;;;;;;5.25;3.00;;;;;;;;;;5023459;28;20132;-65
2021/10/25 00:38:25;;;;;;;5.53;3.00;;;;;;;;;;5022507;28;20128;-65
2021/10/25 00:40:54;;;;;;;5.55;2.72;;;;;;;;;;5024629;28;20419;-66
2021/10/25 00:43:22;;;;;;;8.38;2.70;;;;;;;;;;5022918;28;20137;-65
2021/10/25 00:45:50;;;;;;;7.78;3.35;;;;;;;;;;5026360;28;20060;-67
2021/10/25 00:48:19;;;;;;;5.15;3.33;;;;;;;;;;5028360;28;20051;-65
2021/10/25 00:50:48;;;;;;;8.10;2.63;;;;;;;;;;5022314;28;20680;-65
2021/10/25 00:53:17;;;;;;;3.70;2.50;;;;;;;;;;5026762;28;20049;-65
2021/10/25 00:55:45;;;;;;;4.00;2.58;;;;;;;;;;5026871;28;20072;-64
2021/10/25 00:58:14;;;;;;;4.97;3.05;;;;;;;;;;5027386;28;20137;-67
2021/10/25 01:00:42;;;;;;;4.80;2.90;;;;;;;;;;5024703;28;20158;-64
2021/10/25 01:03:11;;;;;;;6.10;3.17;;;;;;;;;;5024766;28;20073;-65
2021/10/25 01:05:39;;;;;;;5.93;2.92;;;;;;;;;;5026280;28;20132;-65
2021/10/25 01:08:09;;;;;;;5.82;3.00;;;;;;;;;;5026442;28;20172;-64
2021/10/25 01:10:38;;;;;;;5.65;3.05;;;;;;;;;;5025322;28;20089;-67
2021/10/25 01:13:06;;;;;;;6.95;3.08;;;;;;;;;;5027893;28;20076;-68
2021/10/25 01:15:35;;;;;;;7.38;3.08;;;;;;;;;;5026860;28;20517;-64
2021/10/25 01:18:03;;;;;;;5.28;2.90;;;;;;;;;;5027070;28;20091;-65
2021/10/25 01:20:34;;;;;;;5.43;3.03;;;;;;;;;;5023398;28;20069;-67
2021/10/25 01:23:02;;;;;;;6.43;3.28;;;;;;;;;;5027352;28;20457;-69
2021/10/25 01:25:30;;;;;;;6.68;3.42;;;;;;;;;;5027861;28;20042;-67
2021/10/25 01:28:14;;;;;;;2.77;2.02;;;;;;;;;;3559478;28;10021424;-65
2021/10/25 01:30:42;;;;;;;6.30;2.85;;;;;;;;;;2251001;28;10001957;-65
2021/10/25 01:33:12;;;;;;;6.30;2.78;;;;;;;;;;5028917;28;20053;-65
2021/10/25 01:35:42;;;;;;;4.45;2.63;;;;;;;;;;5028946;28;20088;-65
2021/10/25 01:38:10;;;;;;;5.70;3.13;;;;;;;;;;5027974;28;20099;-65
2021/10/25 01:40:38;;;;;;;5.30;2.75;;;;;;;;;;5029538;28;20072;-65
2021/10/25 01:43:07;;;;;;;7.15;3.10;;;;;;;;;;5025922;28;20072;-65
2021/10/25 01:45:35;;;;;;;9.13;3.05;;;;;;;;;;5029071;28;20424;-65
2021/10/25 01:48:04;;;;;;;5.95;2.72;;;;;;;;;;5027977;28;20482;-65
2021/10/25 01:50:33;;;;;;;5.97;2.63;;;;;;;;;;5029793;28;20129;-65
2021/10/25 01:53:05;;;;;;;5.97;3.67;;;;;;;;;;5036044;28;20044;-68
2021/10/25 01:55:34;;;;;;;4.80;2.55;;;;;;;;;;5035295;28;20053;-65
2021/10/25 01:58:02;;;;;;;4.05;2.65;;;;;;;;;;5030139;28;20054;-68
2021/10/25 02:00:31;;;;;;;4.28;2.80;;;;;;;;;;5032252;28;20520;-67
2021/10/25 02:03:00;;;;;;;6.70;3.05;;;;;;;;;;5030106;28;20547;-64
2021/10/25 02:05:28;;;;;;;4.60;2.72;;;;;;;;;;5032603;28;20080;-66
2021/10/25 02:07:56;;;;;;;5.10;2.75;;;;;;;;;;5033038;28;20136;-64
2021/10/25 02:10:26;;;;;;;6.00;3.20;;;;;;;;;;5032163;28;20104;-64
2021/10/25 02:12:54;;;;;;;5.70;2.45;;;;;;;;;;5031826;28;20055;-64
2021/10/25 02:15:22;;;;;;;5.10;2.60;;;;;;;;;;5031984;28;20084;-64
2021/10/25 02:17:51;;;;;;;5.43;2.50;;;;;;;;;;5031857;28;20459;-64
2021/10/25 02:20:19;;;;;;;5.80;2.85;;;;;;;;;;5030968;28;20048;-66
2021/10/25 02:22:48;;;;;;;5.40;2.88;;;;;;;;;;5030799;28;20149;-64
2021/10/25 02:25:16;;;;;;;5.35;2.35;;;;;;;;;;5024678;28;20046;-65
2021/10/25 02:27:46;;;;;;;5.50;2.67;;;;;;;;;;5025043;28;20050;-64
2021/10/25 02:30:15;;;;;;;4.78;2.78;;;;;;;;;;5025698;28;20064;-64
2021/10/25 02:32:44;;;;;;;6.00;2.42;;;;;;;;;;5024111;28;20513;-64
2021/10/25 02:35:13;;;;;;;6.03;2.90;;;;;;;;;;5024958;28;20476;-64
2021/10/25 02:37:41;;;;;;;8.55;2.90;;;;;;;;;;5025762;28;20045;-65
2021/10/25 02:40:10;;;;;;;4.18;2.50;;;;;;;;;;5029257;28;20050;-65
2021/10/25 02:42:38;;;;;;;4.55;2.80;;;;;;;;;;5029585;28;20049;-65
2021/10/25 02:45:08;;;;;;;3.75;2.40;;;;;;;;;;5028904;28;20076;-64
2021/10/25 02:47:37;;;;;;;4.00;2.72;;;;;;;;;;5027480;28;20084;-67
2021/10/25 02:50:05;;;;;;;3.65;2.28;;;;;;;;;;5031138;28;20132;-65
2021/10/25 02:52:34;;;;;;;4.45;2.80;;;;;;;;;;5029388;28;20052;-65
2021/10/25 02:55:02;;;;;;;5.35;2.40;;;;;;;;;;5030234;28;20057;-68
2021/10/25 02:57:31;;;;;;;4.43;2.50;;;;;;;;;;5030598;28;20046;-68
2021/10/25 02:59:59;;;;;;;3.78;2.35;;;;;;;;;;5031338;28;20222;-65
2021/10/25 03:02:29;;;;;;;5.40;2.85;;;;;;;;;;5026164;28;20045;-65
2021/10/25 03:04:57;;;;;;;4.50;2.20;;;;;;;;;;5026608;28;20073;-68
2021/10/25 03:07:26;;;;;;;5.70;3.28;;;;;;;;;;5028474;28;20133;-65
2021/10/25 03:09:54;;;;;;;3.55;2.22;;;;;;;;;;5029245;28;20544;-65
2021/10/25 03:12:23;;;;;;;4.47;2.25;;;;;;;;;;5029572;28;20077;-67
2021/10/25 03:14:52;;;;;;;4.03;2.08;;;;;;;;;;5028905;28;20148;-65
2021/10/25 03:17:21;;;;;;;5.25;2.40;;;;;;;;;;5030891;28;20251;-65
2021/10/25 03:19:50;;;;;;;4.95;2.60;;;;;;;;;;5030271;28;20049;-67
2021/10/25 03:22:19;;;;;;;5.15;2.25;;;;;;;;;;5028660;28;20056;-65
2021/10/25 03:24:47;;;;;;;5.43;2.70;;;;;;;;;;5028272;28;20063;-69
2021/10/25 03:27:15;;;;;;;5.38;2.58;;;;;;;;;;5027408;28;20136;-64
2021/10/25 03:29:44;;;;;;;7.03;2.35;;;;;;;;;;5026671;28;20068;-65
2021/10/25 03:32:12;;;;;;;3.53;2.30;;;;;;;;;;5026405;28;20132;-65
2021/10/25 03:34:40;;;;;;;3.53;2.45;;;;;;;;;;5029046;28;20171;-66
2021/10/25 03:37:11;;;;;;;6.10;2.30;;;;;;;;;;5029894;28;20089;-64
2021/10/25 03:39:41;;;;;;;3.95;2.50;;;;;;;;;;5028582;28;20449;-65
2021/10/25 03:42:14;;;;;;;3.97;2.25;;;;;;;;;;5029927;28;20120;-65
2021/10/25 03:44:46;;;;;;;4.32;2.20;;;;;;;;;;5028746;28;20172;-65
2021/10/25 03:47:18;;;;;;;5.57;2.60;;;;;;;;;;5029620;28;20075;-65
2021/10/25 03:49:51;;;;;;;6.32;2.80;;;;;;;;;;5029402;28;20080;-66
2021/10/25 03:52:26;;;;;;;5.97;3.10;;;;;;;;;;5030375;28;20055;-65
2021/10/25 03:55:01;;;;;;;;;;;;;;;;;;5023504;28;20140;-67
2021/10/25 04:00:37;;;;;;;7.63;2.47;;;;;;;;;;5022084;28;20046;-67
2021/10/25 04:25:39;;;;;;;6.75;2.85;;;;;;;;;;5022697;28;20045;-65
2021/10/25 04:28:09;;;;;;;;;;;;;;;;;;5021943;28;20045;-65
2021/10/25 04:30:38;;;;;;;3.25;2.13;;;;;;;;;;5020376;28;20016;-68
2021/10/25 04:33:07;;;;;;;3.45;2.17;;;;;;;;;;5020467;28;20060;-65
2021/10/25 04:35:35;;;;;;;5.60;1.85;;;;;;;;;;5019736;28;20496;-68
2021/10/25 04:38:03;;;;;;;5.20;2.20;;;;;;;;;;5020529;28;20394;-68
2021/10/25 04:40:34;;;;;;;4.35;2.40;;;;;;;;;;5022900;28;20051;-69
2021/10/25 04:43:02;;;;;;;4.22;2.28;;;;;;;;;;5020919;28;20045;-70
2021/10/25 04:45:30;;;;;;;6.32;2.03;;;;;;;;;;5018865;28;20046;-67
2021/10/25 04:47:59;;;;;;;3.15;1.95;;;;;;;;;;5019106;28;20391;-67
2021/10/25 04:50:27;;;;;;;7.00;2.40;;;;;;;;;;5019239;28;20607;-66
2021/10/25 04:52:56;;;;;;;5.57;2.50;;;;;;;;;;5025895;28;20060;-65
2021/10/25 04:55:24;;;;;;;4.30;2.63;;;;;;;;;;5021978;28;20082;-67
2021/10/25 04:57:54;;;;;;;3.58;2.50;;;;;;;;;;5023711;28;20132;-68
2021/10/25 05:00:22;;;;;;;4.95;2.33;;;;;;;;;;5022814;28;20265;-69
2021/10/25 05:02:50;;;;;;;3.97;2.00;;;;;;;;;;5022457;28;20050;-65
2021/10/25 05:05:19;;;;;;;4.20;2.22;;;;;;;;;;5025964;28;20118;-65
2021/10/25 05:07:47;;;;;;;5.57;2.30;;;;;;;;;;5026286;28;20065;-65
2021/10/25 05:10:15;;;;;;;4.90;2.05;;;;;;;;;;5025383;28;20058;-65
2021/10/25 05:12:43;;;;;;;4.82;2.38;;;;;;;;;;5024869;28;20118;-69
2021/10/25 05:15:13;;;;;;;4.35;2.28;;;;;;;;;;5020313;28;20053;-66
2021/10/25 05:17:41;;;;;;;5.45;2.22;;;;;;;;;;5019406;28;20068;-65
2021/10/25 05:20:10;;;;;;;4.18;1.98;;;;;;;;;;5023702;28;20465;-65
2021/10/25 05:22:38;;;;;;;5.18;2.25;;;;;;;;;;5024080;28;20049;-65
2021/10/25 05:25:08;;;;;;;5.40;2.15;;;;;;;;;;5027986;28;20045;-66
2021/10/25 05:27:37;;;;;;;3.38;1.80;;;;;;;;;;5028337;28;20451;-69
2021/10/25 05:30:05;;;;;;;3.78;2.30;;;;;;;;;;5019637;28;20143;-66
2021/10/25 05:32:36;;;;;;;3.58;2.05;;;;;;;;;;5025417;28;20484;-65
2021/10/25 05:35:04;;;;;;;3.38;2.15;;;;;;;;;;5020844;28;20075;-68
2021/10/25 05:37:33;;;;;;;4.18;1.63;;;;;;;;;;5028606;28;20083;-67
2021/10/25 05:40:02;;;;;;;6.00;2.60;;;;;;;;;;5028807;28;20055;-67
2021/10/25 05:42:31;;;;;;;3.83;2.05;;;;;;;;;;5029372;28;20080;-66
2021/10/25 05:44:59;;;;;;;2.83;1.55;;;;;;;;;;5027205;28;20053;-65
2021/10/25 05:47:27;;;;;;;3.10;1.80;;;;;;;;;;5025445;28;20049;-65
2021/10/25 05:49:58;;;;;;;4.30;1.95;;;;;;;;;;5027705;28;20948;-65
2021/10/25 05:52:27;;;;;;;4.78;2.20;;;;;;;;;;5026813;28;20148;-66
2021/10/25 05:54:55;;;;;;;5.03;1.70;;;;;;;;;;5027711;28;20076;-65
2021/10/25 05:57:24;;;;;;;4.32;2.05;;;;;;;;;;5027164;28;20123;-65
2021/10/25 05:59:52;;;;;;;3.08;1.80;;;;;;;;;;5023861;28;20050;-66
2021/10/25 06:02:26;;;;;;;3.33;1.95;;;;;;;;;;5024299;28;20437;-65
2021/10/25 06:04:55;;;;;;;3.60;2.05;;;;;;;;;;5025081;28;20053;-66
2021/10/25 06:07:25;;;;;;;4.75;2.22;;;;;;;;;;5023623;28;20152;-65
2021/10/25 06:09:53;;;;;;;3.03;1.70;;;;;;;;;;5022334;28;20149;-70
2021/10/25 06:12:22;;;;;;;3.47;2.20;;;;;;;;;;5005902;28;20158;-65
2021/10/25 06:14:51;;;;;;;4.40;2.10;;;;;;;;;;5007495;28;20085;-66
2021/10/25 06:17:36;;;;;;;2.78;2.10;;;;;;;;;;4994971;28;20138;-68
2021/10/25 06:20:10;;;;;;;5.45;2.05;;;;;;;;;;5004763;28;20168;-65
2021/10/25 06:22:40;;;;;;;4.18;2.08;;;;;;;;;;5005455;28;20081;-66
2021/10/25 06:25:12;;;;;;;5.00;2.30;;;;;;;;;;5005537;28;20528;-65
2021/10/25 06:27:41;;;;;;;6.05;1.80;;;;;;;;;;5005996;28;20058;-65
2021/10/25 06:30:10;;;;;;;5.07;2.22;;;;;;;;;;5002596;28;20073;-65
2021/10/25 06:32:39;;;;;;;4.18;2.10;;;;;;;;;;5005595;28;20286;-67
2021/10/25 06:35:09;;;;;;;5.35;1.88;;;;;;;;;;5000038;28;20081;-65
2021/10/25 06:37:50;;;;;;;7.15;1.73;;;;;;;;;;5003478;28;20077;-66
2021/10/25 06:40:19;;;;;;;4.70;1.90;;;;;;;;;;5005476;28;20057;-66
2021/10/25 06:42:48;;;;;;;3.05;1.90;;;;;;;;;;5005417;28;20129;-65
2021/10/25 06:45:18;;;;;;;5.72;2.00;;;;;;;;;;5004954;28;20459;-66
2021/10/25 06:47:46;;;;;;;8.27;2.22;;;;;;;;;;5007809;28;20141;-65
2021/10/25 06:50:15;;;;;;;9.57;2.22;;;;;;;;;;5004629;28;20050;-65
2021/10/25 06:52:45;;;;;;;3.67;2.10;;;;;;;;;;5003857;28;20421;-66
2021/10/25 06:55:13;;;;;;;3.20;2.13;;;;;;;;;;5005007;28;20497;-65
2021/10/25 06:57:42;;;;;;;3.88;1.88;;;;;;;;;;5004152;28;20109;-64
2021/10/25 07:00:12;;;;;;;4.78;2.30;;;;;;;;;;5000888;28;20054;-65
2021/10/25 07:02:41;;;;;;;3.67;2.25;;;;;;;;;;5002854;28;20050;-66
2021/10/25 07:05:10;;;;;;;9.98;2.00;;;;;;;;;;5001777;28;20060;-65
2021/10/25 07:07:39;;;;;;;3.53;2.22;;;;;;;;;;5002381;28;20678;-66
2021/10/25 07:10:10;;;;;;;4.50;2.30;;;;;;;;;;5005179;28;20156;-65
2021/10/25 07:12:39;;;;;;;5.43;2.17;;;;;;;;;;5027018;28;20055;-64
2021/10/25 07:15:09;;;;;;;3.50;1.77;;;;;;;;;;5025365;28;20459;-66
2021/10/25 07:17:38;;;;;;;3.58;1.80;;;;;;;;;;5026384;28;20061;-68
2021/10/25 07:20:23;;;;;;;4.88;1.70;;;;;;;;;;5025314;28;20045;-65
2021/10/25 07:59:52;;;;;;;6.90;2.70;;;;;;;;;;4981787;28;20103;-68
2021/10/25 08:08:06;;;;;;;4.13;2.22;;;;;;;;;;5019409;28;20143;-66
2021/10/25 08:10:39;;;;;;;6.35;3.10;;;;;;;;;;5023972;28;20063;-67
2021/10/25 08:13:13;;;;;;;6.22;2.63;;;;;;;;;;5020359;28;20555;-69
2021/10/25 08:15:44;;;;;;;5.78;2.85;;;;;;;;;;5020073;28;20042;-65
2021/10/25 08:18:30;;;;;;;6.40;2.55;;;;;;;;;;5018795;28;20053;-64
2021/10/25 08:20:59;;;;;;;7.30;3.13;;;;;;;;;;5016617;28;20111;-66
2021/10/25 08:23:28;;;;;;;6.35;3.10;;;;;;;;;;5018252;28;20057;-69
2021/10/25 08:25:56;;;;;;;5.85;3.05;;;;;;;;;;5021358;28;20053;-66
2021/10/25 08:28:24;;;;;;;7.32;3.03;;;;;;;;;;5022132;28;20060;-66
2021/10/25 08:30:54;;;;;;;6.63;3.15;;;;;;;;;;5023356;28;20077;-65
2021/10/25 08:36:12;;;;;;;7.18;3.17;;;;;;;;;;5020974;28;20531;-65
2021/10/25 08:41:28;;;;;;;4.88;2.72;;;;;;;;;;5013926;28;20410;-65
2021/10/25 08:43:57;;;;;;;7.30;3.22;;;;;;;;;;5024010;28;20057;-65
2021/10/25 08:46:29;;;;;;;6.63;2.70;;;;;;;;;;5025699;28;20046;-66
2021/10/25 08:48:58;;;;;;;11.77;3.40;;;;;;;;;;5025714;28;20068;-67
2021/10/25 08:51:29;;;;;;;9.80;3.50;;;;;;;;;;5018353;28;20112;-64
2021/10/25 08:53:57;;;;;;;10.02;3.65;;;;;;;;;;5016884;28;20092;-66
2021/10/25 08:56:26;;;;;;;10.30;3.70;;;;;;;;;;5024240;28;20057;-68
2021/10/25 08:58:56;;;;;;;5.95;3.50;;;;;;;;;;5022359;28;20180;-65
2021/10/25 09:01:25;;;;;;;6.40;3.70;;;;;;;;;;5021536;28;20050;-66
2021/10/25 09:04:05;;;;;;;7.45;3.65;;;;;;;;;;5023851;28;20049;-65
2021/10/25 09:06:34;;;;;;;6.63;3.80;;;;;;;;;;5021978;28;20045;-66
2021/10/25 09:09:04;;;;;;;9.93;3.92;;;;;;;;;;5024991;28;20049;-67
2021/10/25 09:11:33;;;;;;;8.25;3.75;;;;;;;;;;5024559;28;20065;-68
2021/10/25 09:14:01;;;;;;;12.90;4.32;;;;;;;;;;5025328;28;20103;-65
2021/10/25 09:16:30;;;;;;;12.93;3.58;;;;;;;;;;5025575;28;20065;-66
2021/10/25 09:18:58;;;;;;;6.85;3.80;;;;;;;;;;5025160;28;20049;-66
2021/10/25 09:21:35;;;;;;;10.70;4.25;;;;;;;;;;5025575;28;20126;-67
2021/10/25 09:24:04;;;;;;;11.70;4.47;;;;;;;;;;5018118;28;20133;-66
2021/10/25 09:26:34;;;;;;;10.25;3.67;;;;;;;;;;5020195;28;20474;-69
2021/10/25 09:29:03;;;;;;;7.97;3.72;;;;;;;;;;5017382;28;20631;-66
2021/10/25 09:31:34;;;;;;;10.88;4.60;;;;;;;;;;5008763;28;20513;-65
2021/10/25 09:34:05;;;;;;;16.27;5.60;;;;;;;;;;5019984;28;20099;-65
2021/10/25 09:36:38;;;;;;;11.18;5.10;;;;;;;;;;5024208;28;20131;-69
2021/10/25 09:39:12;;;;;;;9.32;4.90;;;;;;;;;;5015555;28;20046;-66
2021/10/25 09:41:54;;;;;;;9.87;4.90;;;;;;;;;;5025404;28;20515;-65
2021/10/25 09:49:57;;;;;;;11.52;4.78;;;;;;;;;;5026289;28;20680;-65
2021/10/25 09:52:30;;;;;;;13.20;4.97;;;;;;;;;;5014921;28;20143;-65
2021/10/25 09:54:59;;;;;;;9.95;4.65;;;;;;;;;;5017874;28;20483;-65
2021/10/25 09:57:38;;;;;;;12.95;5.15;;;;;;;;;;5025785;28;20503;-65
2021/10/25 10:00:08;;;;;;;9.25;4.68;;;;;;;;;;5025462;28;20497;-64
2021/10/25 10:02:37;;;;;;;8.93;4.53;;;;;;;;;;5024652;28;20054;-65
2021/10/25 10:05:08;;;;;;;10.57;4.50;;;;;;;;;;5024877;28;20148;-67
2021/10/25 10:07:38;;;;;;;8.95;4.13;;;;;;;;;;5021165;28;20495;-67
2021/10/25 10:10:09;;;;;;;10.68;4.20;;;;;;;;;;5024866;28;20136;-68
2021/10/25 10:12:40;;;;;;;9.52;4.80;;;;;;;;;;5025502;28;20618;-65
2021/10/25 10:15:09;;;;;;;7.78;4.00;;;;;;;;;;5024162;28;20053;-64
2021/10/25 10:17:44;;;;;;;12.38;4.82;;;;;;;;;;5019490;28;20079;-70
2021/10/25 10:20:14;;;;;;;10.30;4.32;;;;;;;;;;5024830;28;20089;-64
2021/10/25 10:22:47;;;;;;;11.10;5.30;;;;;;;;;;5024436;28;20116;-67
2021/10/25 10:25:25;;;;;;;8.85;4.70;;;;;;;;;;5025555;28;20045;-67
2021/10/25 10:27:58;;;;;;;10.15;5.43;;;;;;;;;;5023762;28;20600;-64
2021/10/25 10:30:28;;;;;;;11.82;5.53;;;;;;;;;;5024333;28;20045;-67
2021/10/25 10:33:00;;;;;;;11.25;4.93;;;;;;;;;;5021859;28;20140;-64
2021/10/25 10:35:39;;;;;;;10.18;5.30;;;;;;;;;;5017457;28;20056;-67
2021/10/25 10:38:09;;;;;;;14.07;6.00;;;;;;;;;;5023908;28;20052;-68
2021/10/25 10:40:38;;;;;;;10.10;5.22;;;;;;;;;;5024796;28;20069;-68
2021/10/25 10:43:09;;;;;;;11.57;5.70;;;;;;;;;;5022957;28;20041;-68
2021/10/25 10:45:37;;;;;;;11.68;6.00;;;;;;;;;;5023956;28;20049;-63
2021/10/25 10:48:07;;;;;;;13.30;6.22;;;;;;;;;;5023064;28;20129;-69
2021/10/25 10:50:42;;;;;;;16.30;6.93;;;;;;;;;;5024625;28;20128;-66
2021/10/25 10:53:11;;;;;;;;;;;;;;;;;;5022128;28;20145;-67
2021/10/25 10:55:43;;;;;;;14.65;6.18;;;;;;;;;;5023862;28;19988;-64
2021/10/25 10:58:28;;;;;;;16.75;6.13;;;;;;;;;;5023821;28;20142;-66
2021/10/25 11:00:56;;;;;;;;;;;;;;;;;;5020577;28;20084;-67
2021/10/25 11:03:26;;;;;;;9.98;5.28;;;;;;;;;;5019976;28;19931;-64
2021/10/25 11:05:55;;;;;;;11.93;5.65;;;;;;;;;;5023565;28;20168;-65
2021/10/25 11:08:24;;;;;;;12.63;5.95;;;;;;;;;;5021537;28;20065;-66
2021/10/25 11:11:00;;;;;;;8.35;4.82;;;;;;;;;;5022463;28;20135;-63
2021/10/25 11:13:33;;;;;;;8.38;4.72;;;;;;;;;;5023117;28;20412;-66
2021/10/25 11:16:06;;;;;;;12.82;5.75;;;;;;;;;;5023265;28;20503;-67
2021/10/25 11:18:36;;;;;;;8.52;4.75;;;;;;;;;;5020436;28;20676;-63
2021/10/25 11:21:14;;;;;;;10.10;5.55;;;;;;;;;;5022643;28;20164;-64
2021/10/25 11:23:44;;;;;;;13.45;5.93;;;;;;;;;;5023351;28;20060;-64
2021/10/25 11:26:16;;;;;;;13.30;6.00;;;;;;;;;;5021226;28;20500;-66
2021/10/25 11:29:13;;;;;;;17.40;6.38;;;;;;;;;;5024532;28;20049;-68
2021/10/25 11:31:42;;;;;;;9.23;4.47;;;;;;;;;;4996362;28;20045;-65
2021/10/25 11:34:15;;;;;;;10.13;5.82;;;;;;;;;;5022498;28;20515;-67
2021/10/25 11:36:50;;;;;;;14.82;5.95;;;;;;;;;;5021457;28;20410;-65
2021/10/25 11:39:25;;;;;;;13.35;5.70;;;;;;;;;;5021240;28;20129;-64
2021/10/25 11:41:54;;;;;;;10.50;4.63;;;;;;;;;;5027073;28;20489;-63
2021/10/25 11:44:23;;;;;;;10.30;5.03;;;;;;;;;;5027786;28;20520;-63
2021/10/25 11:46:51;;;;;;;12.88;5.15;;;;;;;;;;5026628;28;20128;-66
2021/10/25 11:49:27;;;;;;;14.63;5.55;;;;;;;;;;5028002;28;20497;-64
2021/10/25 11:51:56;;;;;;;12.27;6.00;;;;;;;;;;5028702;28;20080;-64
2021/10/25 11:54:24;;;;;;;11.57;5.63;;;;;;;;;;5026758;28;20050;-63
2021/10/25 11:57:03;;;;;;;12.70;5.88;;;;;;;;;;5027472;28;20045;-64
2021/10/25 11:59:31;;;;;;;14.75;5.40;;;;;;;;;;5018796;28;20048;-69
2021/10/25 12:02:08;;;;;;;14.02;5.90;;;;;;;;;;5022072;28;20500;-65
2021/10/25 12:04:43;;;;;;;10.50;5.22;;;;;;;;;;5023277;28;20504;-66
2021/10/25 12:07:12;;;;;;;8.48;4.85;;;;;;;;;;5023505;28;20045;-64
2021/10/25 12:09:40;;;;;;;12.40;5.60;;;;;;;;;;5023162;28;20049;-64
2021/10/25 12:12:14;;;;;;;9.70;5.28;;;;;;;;;;5022798;28;20481;-66
2021/10/25 12:14:44;;;;;;;9.95;5.45;;;;;;;;;;5021050;28;20049;-65
2021/10/25 12:17:17;;;;;;;11.82;5.43;;;;;;;;;;5025622;28;20046;-64
2021/10/25 12:19:46;;;;;;;12.35;5.20;;;;;;;;;;5026080;28;20128;-64
2021/10/25 12:22:16;;;;;;;10.60;4.40;;;;;;;;;;5027752;28;20085;-64
2021/10/25 12:24:46;;;;;;;9.32;5.43;;;;;;;;;;5022921;28;20351;-67
2021/10/25 12:27:18;;;;;;;10.80;5.28;;;;;;;;;;5025285;28;20077;-66
2021/10/25 12:29:46;;;;;;;12.77;5.88;;;;;;;;;;5026249;28;20060;-63
2021/10/25 12:32:15;;;;;;;10.20;5.50;;;;;;;;;;5026157;28;20091;-64
2021/10/25 12:34:51;;;;;;;10.55;5.28;;;;;;;;;;5021806;28;20069;-67
2021/10/25 12:37:20;;;;;;;9.70;4.45;;;;;;;;;;5007881;28;20560;-63
2021/10/25 12:39:49;;;;;;;7.88;4.65;;;;;;;;;;5019376;28;20143;-63
2021/10/25 12:42:19;;;;;;;7.25;4.25;;;;;;;;;;5027103;28;20410;-63
2021/10/25 12:44:50;;;;;;;11.40;4.22;;;;;;;;;;5024647;28;20152;-63
2021/10/25 12:47:20;;;;;;;7.88;4.68;;;;;;;;;;5026985;28;20468;-64
2021/10/25 12:49:49;;;;;;;8.10;4.82;;;;;;;;;;5023679;28;20080;-64
2021/10/25 12:52:18;;;;;;;12.95;4.85;;;;;;;;;;5026389;28;20092;-64
2021/10/25 12:54:47;;;;;;;11.82;4.90;;;;;;;;;;5024935;28;20383;-65
2021/10/25 12:57:17;;;;;;;8.73;4.60;;;;;;;;;;5020391;28;20049;-66
2021/10/25 12:59:57;;;;;;;9.27;4.85;;;;;;;;;;5018568;28;20084;-68
2021/10/25 13:02:26;;;;;;;11.20;4.70;;;;;;;;;;5020247;28;20096;-63
2021/10/25 13:05:05;;;;;;;10.27;4.07;;;;;;;;;;5023736;28;20045;-65
2021/10/25 13:07:33;;;;;;;12.27;5.18;;;;;;;;;;5025851;28;20466;-66
2021/10/25 13:10:02;;;;;;;7.53;4.63;;;;;;;;;;5020024;28;20045;-68
2021/10/25 13:12:31;;;;;;;11.95;5.53;;;;;;;;;;5022335;28;20046;-65
2021/10/25 13:15:01;;;;;;;16.38;5.50;;;;;;;;;;5020907;28;20372;-63
2021/10/25 13:17:39;;;;;;;10.90;4.80;;;;;;;;;;5020413;28;20080;-63
2021/10/25 13:20:09;;;;;;;10.52;4.68;;;;;;;;;;5020012;28;20065;-64
2021/10/25 13:22:37;;;;;;;9.85;4.65;;;;;;;;;;5023585;28;20103;-64
2021/10/25 13:25:06;;;;;;;10.45;4.50;;;;;;;;;;5022506;28;20046;-63
2021/10/25 13:27:36;;;;;;;8.20;4.95;;;;;;;;;;5017592;28;20053;-64
2021/10/25 13:30:06;;;;;;;8.18;4.75;;;;;;;;;;5020378;28;20065;-65
2021/10/25 13:32:35;;;;;;;9.13;4.80;;;;;;;;;;5026757;28;20072;-67
2021/10/25 13:35:04;;;;;;;10.15;4.75;;;;;;;;;;5022581;28;20057;-64
2021/10/25 13:37:33;;;;;;;10.45;4.50;;;;;;;;;;5012938;28;20080;-65
2021/10/25 13:40:01;;;;;;;10.85;4.80;;;;;;;;;;5026714;28;20084;-66
2021/10/25 13:42:30;;;;;;;9.75;4.85;;;;;;;;;;5016630;28;20057;-64
2021/10/25 13:44:58;;;;;;;9.63;4.82;;;;;;;;;;5023066;28;20504;-64
2021/10/25 13:47:28;;;;;;;12.32;4.15;;;;;;;;;;5039438;28;20452;-66
2021/10/25 13:49:57;;;;;;;9.35;4.57;;;;;;;;;;5030296;28;20061;-64
2021/10/25 13:52:25;;;;;;;11.50;5.70;;;;;;;;;;5030294;28;20053;-63
2021/10/25 13:54:55;;;;;;;14.70;5.85;;;;;;;;;;5030401;28;20587;-63
2021/10/25 13:57:24;;;;;;;9.57;5.00;;;;;;;;;;5028368;28;20103;-65
2021/10/25 13:59:53;;;;;;;12.50;5.57;;;;;;;;;;5027414;28;20114;-67
2021/10/25 14:02:27;;;;;;;10.18;4.50;;;;;;;;;;5024459;28;20081;-63
2021/10/25 14:04:58;;;;;;;10.82;5.28;;;;;;;;;;5028858;28;20088;-66
2021/10/25 14:07:31;;;;;;;9.15;4.57;;;;;;;;;;5026623;28;20042;-67
2021/10/25 14:10:04;;;;;;;16.83;5.72;;;;;;;;;;5029548;28;20053;-63
2021/10/25 14:12:35;;;;;;;10.77;5.63;;;;;;;;;;5022281;28;20055;-64
2021/10/25 14:15:21;;;;;;;9.10;5.07;;;;;;;;;;5027610;28;20083;-63
2021/10/25 14:17:50;;;;;;;9.63;5.60;;;;;;;;;;5026854;28;20085;-65
2021/10/25 14:20:21;;;;;;;11.43;6.05;;;;;;;;;;5030450;28;20038;-64
2021/10/25 14:22:50;;;;;;;10.23;5.05;;;;;;;;;;5018467;28;20112;-69
2021/10/25 14:25:18;;;;;;;10.07;5.45;;;;;;;;;;5022271;28;20049;-65
2021/10/25 14:27:50;;;;;;;13.02;5.43;;;;;;;;;;5021029;28;20049;-63
2021/10/25 14:30:22;;;;;;;9.93;5.18;;;;;;;;;;5024451;28;20119;-68
2021/10/25 14:32:51;;;;;;;9.98;5.30;;;;;;;;;;5026853;28;20076;-64
2021/10/25 14:35:21;;;;;;;10.85;5.30;;;;;;;;;;5028800;28;20413;-64
2021/10/25 14:37:59;;;;;;;13.95;6.30;;;;;;;;;;5022712;28;20048;-64
2021/10/25 14:40:41;;;;;;;13.68;6.13;;;;;;;;;;5028183;28;20438;-67
2021/10/25 14:43:14;;;;;;;17.88;6.07;;;;;;;;;;5025130;28;20107;-64
2021/10/25 14:45:50;;;;;;;11.90;6.35;;;;;;;;;;5027946;28;20053;-64
2021/10/25 14:48:28;;;;;;;11.18;6.30;;;;;;;;;;5027496;28;20507;-63
2021/10/25 14:53:48;;;;;;;17.08;6.43;;;;;;;;;;5023654;28;20133;-66
2021/10/25 14:56:19;;;;;;;16.27;6.35;;;;;;;;;;5022715;28;20166;-66
2021/10/25 14:58:48;;;;;;;14.32;6.72;;;;;;;;;;5021813;28;20049;-70
2021/10/25 15:01:18;;;;;;;11.80;6.50;;;;;;;;;;5023507;28;20049;-67
2021/10/25 15:03:47;;;;;;;16.88;7.28;;;;;;;;;;5018238;28;20057;-64
2021/10/25 15:06:17;;;;;;;13.40;7.05;;;;;;;;;;5029238;28;20057;-64
2021/10/25 15:08:46;;;;;;;13.73;7.00;;;;;;;;;;5026297;28;20129;-63
2021/10/25 15:11:14;;;;;;;11.48;6.55;;;;;;;;;;5027524;28;20554;-69
2021/10/25 15:13:42;;;;;;;13.55;6.53;;;;;;;;;;5023753;28;20053;-63
2021/10/25 15:16:11;;;;;;;15.15;6.53;;;;;;;;;;5028122;28;20049;-63
2021/10/25 15:18:41;;;;;;;12.40;6.68;;;;;;;;;;5025306;28;20049;-68
2021/10/25 15:21:11;;;;;;;11.50;5.93;;;;;;;;;;5026113;28;20049;-66
2021/10/25 15:23:42;;;;;;;16.45;6.85;;;;;;;;;;5024067;28;20449;-65
2021/10/25 15:26:10;;;;;;;16.48;7.13;;;;;;;;;;5025997;28;20609;-68
2021/10/25 15:28:39;;;;;;;12.73;6.07;;;;;;;;;;5018558;28;20109;-68
2021/10/25 15:31:07;;;;;;;13.77;7.32;;;;;;;;;;5033633;28;20037;-64
2021/10/25 15:33:36;;;;;;;11.07;6.47;;;;;;;;;;5026948;28;20056;-67
2021/10/25 15:36:05;;;;;;;12.73;6.20;;;;;;;;;;5025190;28;20052;-66
2021/10/25 15:38:33;;;;;;;11.45;6.00;;;;;;;;;;5024090;28;20084;-64
2021/10/25 15:41:08;;;;;;;18.77;6.90;;;;;;;;;;5026157;28;20444;-63
2021/10/25 15:43:37;;;;;;;12.63;5.78;;;;;;;;;;5021054;28;20132;-65
2021/10/25 15:46:06;;;;;;;12.00;6.03;;;;;;;;;;5028498;28;20045;-64
2021/10/25 15:48:36;;;;;;;11.25;5.88;;;;;;;;;;5020535;28;20104;-67
2021/10/25 15:51:04;;;;;;;11.23;5.75;;;;;;;;;;5022017;28;20045;-70
2021/10/25 15:53:35;;;;;;;12.25;5.95;;;;;;;;;;5018835;28;20041;-64
2021/10/25 15:56:06;;;;;;;13.15;6.78;;;;;;;;;;5021384;28;20081;-70
2021/10/25 15:58:35;;;;;;;14.35;5.88;;;;;;;;;;5023271;28;21394;-70
2021/10/25 16:01:03;;;;;;;12.38;6.03;;;;;;;;;;5022464;28;20157;-64
2021/10/25 16:03:32;;;;;;;10.90;5.68;;;;;;;;;;5023483;28;20049;-68
2021/10/25 16:06:01;;;;;;;16.02;6.30;;;;;;;;;;5018924;28;20437;-67
2021/10/25 16:08:29;;;;;;;10.68;6.22;;;;;;;;;;5024653;28;20120;-64
2021/10/25 16:10:59;;;;;;;14.60;6.20;;;;;;;;;;5024683;28;20454;-66
2021/10/25 16:13:28;;;;;;;12.10;6.13;;;;;;;;;;5022303;28;20053;-67
2021/10/25 16:15:57;;;;;;;9.75;5.72;;;;;;;;;;5017828;28;20144;-63
2021/10/25 16:18:25;;;;;;;11.18;5.55;;;;;;;;;;5025708;28;20077;-71